Time;durP1;ratioP1;P1;durP2;ratioP2;P2;SDS_P1;SDS_P2;PMS_P1;PMS_P2;Temp;Humidity;BMP_temperature;BMP_pressure;BME280_temperature;BME280_humidity;BME280_pressure;Samples;Min_cycle;Max_cycle;Signal;HPM_P1;HPM_P2
2021/01/07 00:02:25;;;;;;;5.40;3.08;;;;;;;4.67;68.68;101613.91;5003563;28;21592;-91
2021/01/07 00:04:56;;;;;;;3.80;2.67;;;;;;;4.69;68.70;101609.53;4997828;28;20053;-90
2021/01/07 00:07:26;;;;;;;5.13;2.97;;;;;;;4.69;69.07;101599.03;5003090;28;20069;-90
2021/01/07 00:09:52;;;;;;;7.68;2.67;;;;;;;4.72;68.34;101600.84;5001645;28;20023;-90
2021/01/07 00:12:24;;;;;;;4.93;2.75;;;;;;;4.81;68.54;101601.00;5005771;28;20029;-91
2021/01/07 00:14:53;;;;;;;4.90;3.33;;;;;;;4.76;68.76;101602.69;5001634;28;20037;-90
2021/01/07 00:17:36;;;;;;;3.75;2.30;;;;;;;4.85;68.68;101605.44;5004379;28;20036;-90
2021/01/07 00:20:07;;;;;;;4.93;2.83;;;;;;;4.83;68.75;101612.41;5003872;28;20057;-91
2021/01/07 00:22:33;;;;;;;4.47;2.80;;;;;;;4.76;68.81;101615.81;5003290;28;20433;-89
2021/01/07 00:25:00;;;;;;;4.40;2.75;;;;;;;4.78;68.57;101610.56;5005615;28;20061;-89
2021/01/07 00:27:26;;;;;;;5.22;3.00;;;;;;;4.76;68.89;101612.28;5007356;28;20045;-88
2021/01/07 00:29:53;;;;;;;7.60;2.42;;;;;;;4.64;69.22;101613.84;5004398;28;20030;-88
2021/01/07 00:32:19;;;;;;;3.97;2.05;;;;;;;4.54;69.51;101620.66;5006213;28;20026;-88
2021/01/07 00:34:51;;;;;;;4.63;1.98;;;;;;;4.47;69.33;101621.41;5004696;28;20026;-87
2021/01/07 00:37:17;;;;;;;3.78;1.98;;;;;;;4.50;68.71;101613.59;5005472;28;20018;-88
2021/01/07 00:39:44;;;;;;;3.70;2.00;;;;;;;4.51;69.11;101612.75;5006403;28;20030;-87
2021/01/07 00:42:10;;;;;;;4.63;1.75;;;;;;;4.46;68.73;101606.56;5006227;28;20025;-87
2021/01/07 00:44:37;;;;;;;4.43;1.90;;;;;;;4.53;68.76;101597.91;5003648;28;20053;-87
2021/01/07 00:47:03;;;;;;;4.20;1.88;;;;;;;4.50;69.34;101602.25;5004834;28;20501;-87
2021/01/07 00:49:29;;;;;;;3.70;1.73;;;;;;;4.51;69.36;101593.47;5006304;28;20052;-88
2021/01/07 00:51:56;;;;;;;4.30;1.67;;;;;;;4.46;69.21;101596.06;5005220;28;20027;-88
2021/01/07 00:54:22;;;;;;;2.97;1.85;;;;;;;4.51;68.99;101593.47;5007062;28;20026;-88
2021/01/07 00:56:49;;;;;;;3.30;1.80;;;;;;;4.54;69.06;101589.19;5004501;28;20030;-87
2021/01/07 00:59:15;;;;;;;3.80;2.28;;;;;;;4.60;68.93;101590.13;5003969;28;20040;-89
2021/01/07 01:04:24;;;;;;;8.23;3.30;;;;;;;4.61;69.18;101589.28;5070647;27;20892;-89
2021/01/07 01:06:51;;;;;;;8.10;3.90;;;;;;;4.66;69.49;101582.34;5058834;28;20432;-90
2021/01/07 01:09:17;;;;;;;4.15;2.63;;;;;;;4.69;69.59;101587.69;5060054;28;20472;-89
2021/01/07 01:11:46;;;;;;;6.13;3.15;;;;;;;4.73;69.54;101578.97;5060896;28;20025;-89
2021/01/07 01:14:14;;;;;;;6.43;3.45;;;;;;;4.78;69.40;101581.69;5056206;28;20041;-91
2021/01/07 01:16:41;;;;;;;8.95;3.50;;;;;;;4.70;69.44;101578.94;5060066;28;20108;-91
2021/01/07 01:19:07;;;;;;;4.95;3.13;;;;;;;4.72;69.34;101579.84;5060689;28;20064;-91
2021/01/07 01:21:34;;;;;;;3.63;2.60;;;;;;;4.67;69.52;101578.88;5054001;28;20380;-91
2021/01/07 01:24:01;;;;;;;6.82;3.35;;;;;;;4.69;69.45;101577.19;5057259;28;20116;-92
2021/01/07 01:26:27;;;;;;;3.67;2.28;;;;;;;4.71;68.95;101580.72;5051254;28;20095;-90
2021/01/07 01:28:54;;;;;;;3.78;2.22;;;;;;;4.70;69.01;101576.31;5055737;28;20029;-91
2021/01/07 01:31:20;;;;;;;4.07;2.65;;;;;;;4.68;69.27;101576.28;5059670;28;20080;-91
2021/01/07 01:33:47;;;;;;;5.78;2.75;;;;;;;4.71;68.98;101572.84;5060175;28;20471;-89
2021/01/07 01:36:13;;;;;;;5.05;3.10;;;;;;;4.68;69.41;101564.91;5058906;28;20025;-89
2021/01/07 01:38:40;;;;;;;9.93;3.25;;;;;;;4.67;69.16;101568.38;5059072;28;20029;-88
2021/01/07 01:41:07;;;;;;;7.05;3.15;;;;;;;4.68;69.16;101565.78;5060449;28;20024;-88
2021/01/07 01:43:35;;;;;;;6.38;2.85;;;;;;;4.65;69.47;101565.75;5050528;28;20432;-88
2021/01/07 01:46:03;;;;;;;6.05;3.40;;;;;;;4.64;68.97;101570.97;5058853;28;20052;-88
2021/01/07 01:48:31;;;;;;;6.63;3.53;;;;;;;4.66;68.90;101574.47;5059715;28;20067;-87
2021/01/07 01:50:59;;;;;;;13.60;4.20;;;;;;;4.67;69.03;101571.00;5058856;28;20113;-87
2021/01/07 01:53:26;;;;;;;6.50;3.60;;;;;;;4.66;69.35;101569.22;5058234;28;20059;-87
2021/01/07 01:55:53;;;;;;;8.18;4.40;;;;;;;4.68;69.10;101565.78;5059918;28;20444;-87
2021/01/07 01:58:20;;;;;;;6.45;4.10;;;;;;;4.66;69.09;101571.84;5059022;28;20039;-87
2021/01/07 02:00:46;;;;;;;7.38;3.85;;;;;;;4.64;69.11;101563.09;5053842;28;20091;-88
2021/01/07 02:03:13;;;;;;;7.68;4.35;;;;;;;4.66;69.27;101561.34;5046963;28;20040;-87
2021/01/07 02:05:40;;;;;;;9.77;4.47;;;;;;;4.64;69.44;101563.09;5050632;28;20037;-87
2021/01/07 02:08:09;;;;;;;8.88;4.28;;;;;;;4.69;69.53;101556.19;5057798;28;20037;-87
2021/01/07 02:10:36;;;;;;;7.85;4.25;;;;;;;4.68;69.69;101554.41;5058013;28;20472;-87
2021/01/07 02:13:04;;;;;;;14.23;5.72;;;;;;;4.73;69.65;101567.59;5058478;28;20032;-88
2021/01/07 02:15:31;;;;;;;6.10;4.47;;;;;;;4.75;69.28;101560.63;5047386;28;20063;-87
2021/01/07 02:17:58;;;;;;;10.93;5.20;;;;;;;4.75;69.32;101561.53;5045515;28;20701;-87
2021/01/07 02:20:26;;;;;;;9.35;5.05;;;;;;;4.74;69.13;101559.75;5044572;28;20024;-87
2021/01/07 02:22:54;;;;;;;9.20;5.68;;;;;;;4.76;69.23;101557.13;5041397;28;20392;-87
2021/01/07 02:25:22;;;;;;;8.65;4.93;;;;;;;4.75;69.59;101560.63;5039145;28;20109;-87
2021/01/07 02:27:49;;;;;;;10.38;5.53;;;;;;;4.72;69.25;101558.84;5041120;28;20068;-87
2021/01/07 02:30:17;;;;;;;6.15;4.32;;;;;;;4.70;69.33;101556.19;5045466;28;20029;-87
2021/01/07 02:32:44;;;;;;;7.20;3.75;;;;;;;4.62;69.90;101554.31;5045782;28;20030;-87
2021/01/07 02:35:11;;;;;;;7.97;4.03;;;;;;;4.65;69.92;101560.50;5043828;28;20022;-87
2021/01/07 02:37:41;;;;;;;6.50;4.00;;;;;;;4.68;69.61;101549.16;5045305;28;20104;-88
2021/01/07 02:40:09;;;;;;;6.30;3.55;;;;;;;4.66;69.73;101546.50;5045941;28;20034;-88
2021/01/07 02:42:36;;;;;;;6.35;2.85;;;;;;;4.70;69.51;101548.31;5040242;28;20028;-87
2021/01/07 02:45:04;;;;;;;6.18;3.28;;;;;;;4.69;69.65;101543.06;5033470;28;20030;-88
2021/01/07 02:47:31;;;;;;;5.03;3.42;;;;;;;4.66;70.18;101545.59;5040290;28;20040;-87
2021/01/07 02:49:57;;;;;;;4.93;2.70;;;;;;;4.63;70.17;101545.56;5040237;28;20021;-88
2021/01/07 02:52:23;;;;;;;4.78;2.55;;;;;;;4.71;69.82;101536.09;5040681;28;20037;-87
2021/01/07 02:54:50;;;;;;;3.97;2.30;;;;;;;4.67;70.07;101536.88;5045633;28;20032;-88
2021/01/07 02:57:16;;;;;;;6.35;2.53;;;;;;;4.68;69.95;101538.66;5044400;28;20060;-88
2021/01/07 02:59:43;;;;;;;2.92;1.90;;;;;;;4.66;69.93;101533.38;5044062;28;20532;-89
2021/01/07 03:02:09;;;;;;;4.15;2.13;;;;;;;4.67;69.95;101521.13;5045734;28;20052;-88
2021/01/07 03:04:35;;;;;;;7.18;2.20;;;;;;;4.69;70.13;101530.78;5043673;28;20056;-88
2021/01/07 03:07:02;;;;;;;5.68;2.10;;;;;;;4.73;69.78;101521.22;5036495;28;20041;-88
2021/01/07 03:09:29;;;;;;;4.05;1.90;;;;;;;4.74;70.01;101524.75;5040146;28;20460;-88
2021/01/07 03:11:55;;;;;;;4.20;2.05;;;;;;;4.74;69.63;101523.00;5044124;28;20162;-88
2021/01/07 03:14:22;;;;;;;3.67;1.90;;;;;;;4.75;69.95;101516.88;5043872;28;20043;-88
2021/01/07 03:16:48;;;;;;;3.92;2.17;;;;;;;4.75;69.85;101514.25;5054167;28;20038;-88
2021/01/07 03:19:14;;;;;;;4.15;1.80;;;;;;;4.81;70.05;101524.84;5054350;28;20040;-88
2021/01/07 03:21:42;;;;;;;7.60;1.65;;;;;;;4.82;69.63;101520.47;5055004;28;20512;-88
2021/01/07 03:24:09;;;;;;;3.90;1.80;;;;;;;4.84;69.63;101514.38;5054579;28;20124;-89
2021/01/07 03:26:36;;;;;;;2.65;1.60;;;;;;;4.86;69.65;101511.81;5039439;28;20112;-87
2021/01/07 03:29:04;;;;;;;4.45;2.22;;;;;;;4.92;69.73;101511.00;5025802;28;20022;-88
2021/01/07 03:31:31;;;;;;;3.92;1.75;;;;;;;4.88;69.97;101509.19;5027325;28;20025;-87
2021/01/07 03:33:57;;;;;;;4.13;2.60;;;;;;;4.87;69.88;101505.66;5034502;28;20030;-88
2021/01/07 03:36:24;;;;;;;4.20;2.33;;;;;;;4.91;69.43;101502.25;5034868;28;20120;-88
2021/01/07 03:38:50;;;;;;;3.75;2.42;;;;;;;4.95;69.71;101505.81;5033385;28;20365;-90
2021/01/07 03:41:17;;;;;;;8.27;2.95;;;;;;;4.97;69.53;101506.69;5014617;28;20033;-87
2021/01/07 03:43:43;;;;;;;5.57;2.75;;;;;;;4.97;69.69;101501.44;5030712;28;20125;-88
2021/01/07 03:46:09;;;;;;;4.80;2.50;;;;;;;4.98;69.84;101493.56;5034727;28;20021;-87
2021/01/07 03:48:36;;;;;;;6.45;3.72;;;;;;;4.98;69.47;101496.19;5034351;28;20390;-88
2021/01/07 03:51:02;;;;;;;8.13;4.03;;;;;;;4.99;69.70;101497.97;5033590;28;20034;-88
2021/01/07 03:53:29;;;;;;;5.72;3.28;;;;;;;4.93;69.55;101502.25;5019517;28;20451;-88
2021/01/07 03:55:55;;;;;;;8.80;4.35;;;;;;;4.96;69.61;101503.19;5034010;28;20040;-88
2021/01/07 03:58:22;;;;;;;6.80;3.67;;;;;;;4.99;69.37;101500.59;5021782;28;20080;-88
2021/01/07 04:00:48;;;;;;;8.52;4.20;;;;;;;4.92;69.94;101505.75;5014249;28;20060;-88
2021/01/07 04:03:14;;;;;;;9.68;4.82;;;;;;;4.93;70.17;101497.88;5029630;28;20030;-88
2021/01/07 04:05:41;;;;;;;8.60;4.88;;;;;;;4.89;69.96;101501.34;5033555;28;20030;-87
2021/01/07 04:08:07;;;;;;;10.60;4.47;;;;;;;4.91;70.08;101501.34;5033723;28;20041;-88
2021/01/07 04:10:33;;;;;;;9.73;4.72;;;;;;;4.93;69.92;101497.00;5025964;28;20034;-88
2021/01/07 04:13:00;;;;;;;9.70;4.10;;;;;;;4.96;69.73;101503.19;5025372;28;20036;-88
2021/01/07 04:15:26;;;;;;;8.85;4.10;;;;;;;4.97;70.19;101493.56;5013942;28;20033;-87
2021/01/07 04:17:52;;;;;;;10.88;4.07;;;;;;;5.00;69.79;101496.25;5021028;28;20025;-88
2021/01/07 04:20:19;;;;;;;7.13;4.00;;;;;;;5.04;69.75;101487.53;5033593;28;20198;-88
2021/01/07 04:22:45;;;;;;;9.65;4.78;;;;;;;5.05;69.81;101486.66;5033718;28;20037;-88
2021/01/07 04:25:12;;;;;;;7.18;4.35;;;;;;;5.08;70.11;101485.81;5033382;28;20048;-87
2021/01/07 04:27:38;;;;;;;8.70;4.38;;;;;;;5.07;69.67;101482.34;5033545;28;20507;-88
2021/01/07 04:30:06;;;;;;;9.05;4.13;;;;;;;5.09;69.87;101483.22;5022576;28;20036;-87
2021/01/07 04:32:32;;;;;;;7.63;3.50;;;;;;;5.07;69.77;101474.44;5022865;28;20030;-88
2021/01/07 04:34:58;;;;;;;6.28;3.58;;;;;;;5.06;70.23;101477.94;5022634;28;20049;-88
2021/01/07 04:37:24;;;;;;;9.10;3.42;;;;;;;5.06;70.06;101471.78;5019195;28;20108;-87
2021/01/07 04:39:51;;;;;;;7.43;3.60;;;;;;;5.01;70.19;101474.38;5033151;28;20079;-88
2021/01/07 04:42:17;;;;;;;6.32;3.75;;;;;;;5.00;70.41;101472.59;5033532;28;20037;-88
2021/01/07 04:44:44;;;;;;;8.57;3.40;;;;;;;5.01;70.09;101469.13;5033114;28;20461;-88
2021/01/07 04:47:11;;;;;;;6.40;3.15;;;;;;;5.04;69.94;101471.78;5033475;28;20150;-88
2021/01/07 04:49:38;;;;;;;7.85;3.20;;;;;;;5.01;70.39;101470.00;5033195;28;20029;-88
2021/01/07 04:52:05;;;;;;;7.47;3.15;;;;;;;5.04;70.03;101474.41;5033559;28;20128;-88
2021/01/07 04:54:31;;;;;;;4.28;2.45;;;;;;;5.05;70.43;101468.28;5024602;28;20095;-88
2021/01/07 04:56:58;;;;;;;5.38;2.70;;;;;;;5.03;70.53;101462.13;5027541;28;20087;-89
2021/01/07 04:59:24;;;;;;;4.85;2.70;;;;;;;4.99;70.80;101468.22;5026204;28;20026;-88
2021/01/07 05:01:50;;;;;;;4.82;2.33;;;;;;;5.03;70.73;101467.38;5014523;28;20501;-89
2021/01/07 05:04:17;;;;;;;4.93;2.10;;;;;;;4.97;71.12;101465.56;5032639;28;20044;-89
2021/01/07 05:06:46;;;;;;;6.78;2.50;;;;;;;5.04;70.73;101458.63;5033641;28;20370;-89
2021/01/07 05:09:12;;;;;;;4.85;2.25;;;;;;;5.12;70.72;101467.50;5032315;28;20021;-88
2021/01/07 05:11:39;;;;;;;2.58;1.80;;;;;;;5.06;71.18;101459.56;5033528;28;20029;-87
2021/01/07 05:14:06;;;;;;;3.75;2.33;;;;;;;5.07;71.13;101458.69;5032741;28;20069;-88
2021/01/07 05:16:33;;;;;;;3.03;1.70;;;;;;;5.09;70.86;101463.97;5020114;28;20026;-88
2021/01/07 05:19:04;;;;;;;2.63;1.50;;;;;;;5.13;70.73;101456.09;5028427;28;20425;-88
2021/01/07 05:21:30;;;;;;;2.58;1.35;;;;;;;5.04;71.24;101463.88;5013552;28;20030;-88
2021/01/07 05:23:58;;;;;;;1.90;1.35;;;;;;;5.04;71.00;101452.50;5013132;28;20034;-88
2021/01/07 05:26:25;;;;;;;1.80;0.80;;;;;;;5.03;70.96;101456.88;5030712;28;20030;-88
2021/01/07 05:28:54;;;;;;;3.67;1.02;;;;;;;4.95;71.07;101459.41;5032656;28;20033;-90
2021/01/07 05:31:22;;;;;;;2.17;1.20;;;;;;;5.01;71.10;101456.00;5033179;28;20037;-89
2021/01/07 05:33:49;;;;;;;2.40;0.82;;;;;;;4.95;71.06;101451.53;5032721;28;20040;-89
2021/01/07 05:36:21;;;;;;;3.67;1.00;;;;;;;5.06;71.19;101443.78;5033397;28;20040;-91
2021/01/07 05:38:48;;;;;;;;;;;;;;;5.12;70.71;101445.59;5033133;28;20499;-90
2021/01/07 05:41:15;;;;;;;3.22;1.20;;;;;;;5.06;70.86;101453.41;5033015;28;19931;-91
2021/01/07 05:43:43;;;;;;;1.52;0.82;;;;;;;5.05;71.13;101443.75;5032072;28;20037;-89
2021/01/07 05:46:11;;;;;;;1.85;1.00;;;;;;;5.11;70.41;101439.47;5033160;28;20362;-90
2021/01/07 05:48:38;;;;;;;3.05;1.25;;;;;;;5.07;70.90;101442.94;5031895;28;20435;-89
2021/01/07 05:51:05;;;;;;;1.05;0.90;;;;;;;5.05;70.90;101443.75;5037089;28;20480;-90
2021/01/07 05:53:31;;;;;;;3.08;1.05;;;;;;;5.09;70.74;101446.44;5036376;28;20040;-89
2021/01/07 05:55:58;;;;;;;1.50;1.00;;;;;;;5.11;70.96;101439.47;5035779;28;20425;-88
2021/01/07 05:58:24;;;;;;;2.33;0.90;;;;;;;5.15;70.86;101440.41;5036496;28;20115;-88
2021/01/07 06:00:54;;;;;;;4.43;0.98;;;;;;;5.14;70.82;101444.75;5036286;28;20171;-89
2021/01/07 06:03:24;;;;;;;1.27;0.82;;;;;;;5.18;70.54;101441.31;5036443;28;20477;-88
2021/01/07 06:05:52;;;;;;;1.10;0.80;;;;;;;5.14;70.64;101450.00;5036508;28;20025;-89
2021/01/07 06:08:18;;;;;;;2.20;0.90;;;;;;;5.12;70.93;101446.50;5035850;28;20476;-88
2021/01/07 06:10:46;;;;;;;2.95;1.02;;;;;;;5.16;70.92;101450.03;5035462;28;20041;-89
2021/01/07 06:13:17;;;;;;;4.13;1.00;;;;;;;5.15;71.09;101446.50;5035940;28;20083;-87
2021/01/07 06:15:47;;;;;;;2.67;0.80;;;;;;;5.17;71.12;101446.53;5035762;28;20037;-88
2021/01/07 06:18:17;;;;;;;2.95;0.88;;;;;;;5.12;71.25;101442.97;5036048;28;20056;-89
2021/01/07 06:20:43;;;;;;;3.35;1.00;;;;;;;5.17;70.88;101444.81;5035793;28;20116;-87
2021/01/07 06:23:30;;;;;;;2.25;1.08;;;;;;;5.26;70.73;101445.75;5035200;28;20025;-90
2021/01/07 06:26:16;;;;;;;2.25;0.80;;;;;;;5.23;71.31;101443.97;5035782;28;20039;-87
2021/01/07 06:28:49;;;;;;;2.15;1.00;;;;;;;5.22;70.96;101442.22;5042530;28;20040;-88
2021/01/07 06:31:15;;;;;;;5.75;1.27;;;;;;;5.19;70.93;101443.06;5035392;28;20041;-89
2021/01/07 06:33:45;;;;;;;2.33;1.33;;;;;;;5.27;70.76;101444.88;5035309;28;20039;-91
2021/01/07 06:36:12;;;;;;;3.03;0.90;;;;;;;5.21;71.11;101444.81;5034211;28;20033;-89
2021/01/07 06:38:50;;;;;;;3.75;1.15;;;;;;;5.27;71.18;101448.41;5033765;28;20091;-88
2021/01/07 06:41:18;;;;;;;3.35;1.17;;;;;;;5.25;70.89;101444.88;5032381;28;20392;-88
2021/01/07 06:43:48;;;;;;;4.07;1.08;;;;;;;5.29;70.85;101443.19;5033557;28;20037;-89
2021/01/07 06:49:24;;;;;;;5.97;0.90;;;;;;;5.25;71.06;101446.63;5117449;22;20403;-78
2021/01/07 06:51:55;;;;;;;1.58;1.13;;;;;;;5.28;70.79;101442.31;5095931;28;20036;-77
2021/01/07 06:54:27;;;;;;;5.47;1.33;;;;;;;5.31;70.55;101449.34;5088460;28;20028;-79
2021/01/07 06:56:57;;;;;;;2.78;1.20;;;;;;;5.27;71.06;101447.53;5090660;28;20479;-87
2021/01/07 06:59:24;;;;;;;5.70;1.20;;;;;;;5.21;70.91;101447.44;5081497;28;20048;-79
2021/01/07 07:01:56;;;;;;;3.45;0.80;;;;;;;5.23;71.05;101456.25;5081953;28;20041;-80
2021/01/07 07:04:25;;;;;;;1.48;0.82;;;;;;;5.21;70.93;101455.31;5077005;28;20032;-80
2021/01/07 07:13:17;;;;;;;2.88;1.90;;;;;;;5.11;71.33;101449.97;5090738;27;20408;-83
2021/01/07 07:15:44;;;;;;;2.28;1.48;;;;;;;5.21;71.10;101450.06;5070501;28;20037;-80
2021/01/07 07:18:11;;;;;;;2.13;1.38;;;;;;;5.18;71.49;101451.81;5053835;28;20052;-80
2021/01/07 07:20:45;;;;;;;4.22;1.90;;;;;;;5.24;71.17;101455.38;5030559;28;20041;-79
2021/01/07 07:23:21;;;;;;;4.72;2.03;;;;;;;5.19;71.25;101455.31;5030644;28;20123;-83
2021/01/07 07:25:51;;;;;;;4.47;2.20;;;;;;;5.24;71.17;101451.00;5027518;28;20404;-79
2021/01/07 07:28:20;;;;;;;3.00;1.95;;;;;;;5.28;71.10;101455.44;5028194;28;20025;-80
2021/01/07 07:30:49;;;;;;;3.35;2.20;;;;;;;5.24;71.25;101453.63;5029730;28;20088;-79
2021/01/07 07:33:37;;;;;;;3.60;2.08;;;;;;;5.35;71.06;101453.75;5029609;28;20021;-80
2021/01/07 07:36:04;;;;;;;3.88;2.10;;;;;;;5.22;71.20;101462.34;5030161;28;20033;-80
2021/01/07 07:38:34;;;;;;;4.90;1.95;;;;;;;5.23;71.35;101454.47;5029680;28;20095;-81
2021/01/07 07:41:03;;;;;;;4.65;2.08;;;;;;;5.27;70.84;101453.69;5029503;28;20113;-83
2021/01/07 07:43:30;;;;;;;4.25;2.05;;;;;;;5.27;70.97;101453.69;5027298;28;20029;-79
2021/01/07 07:45:57;;;;;;;5.35;2.50;;;;;;;5.28;70.99;101459.78;5029558;28;20040;-80
2021/01/07 07:48:25;;;;;;;3.60;2.53;;;;;;;5.30;71.00;101460.72;5028788;28;20076;-83
2021/01/07 07:51:05;;;;;;;4.82;2.67;;;;;;;5.35;70.89;101461.63;5029520;28;20025;-82
2021/01/07 07:53:31;;;;;;;6.10;3.55;;;;;;;5.24;71.01;101460.63;5025660;28;20138;-80
2021/01/07 07:55:59;;;;;;;4.80;3.35;;;;;;;5.30;70.92;101460.72;5026370;28;20385;-82
2021/01/07 07:58:26;;;;;;;10.07;3.85;;;;;;;5.30;71.08;101465.97;5027629;28;20026;-80
2021/01/07 08:00:56;;;;;;;6.80;4.07;;;;;;;5.30;71.03;101466.84;5029342;28;20105;-81
2021/01/07 08:06:11;;;;;;;8.85;4.22;;;;;;;5.28;71.33;101459.78;5077994;27;20467;-84
2021/01/07 08:08:37;;;;;;;7.07;4.60;;;;;;;5.32;70.98;101466.84;5072845;28;20090;-82
2021/01/07 08:11:07;;;;;;;15.38;6.13;;;;;;;5.30;71.32;101473.84;5070710;28;20480;-82
2021/01/07 08:13:33;;;;;;;13.23;6.22;;;;;;;5.30;71.00;101469.47;5070110;28;20102;-83
2021/01/07 08:15:59;;;;;;;10.30;5.00;;;;;;;5.30;71.17;101472.09;5048859;28;20026;-80
2021/01/07 08:18:28;;;;;;;7.07;4.18;;;;;;;5.26;71.35;101474.66;5050026;28;20103;-80
2021/01/07 08:21:06;;;;;;;11.52;5.97;;;;;;;5.30;71.22;101476.47;5053921;28;20033;-81
2021/01/07 08:23:33;;;;;;;6.88;4.22;;;;;;;5.28;71.31;101473.84;5050137;28;20022;-81
2021/01/07 08:26:01;;;;;;;8.05;4.25;;;;;;;5.29;71.29;101480.81;5050567;28;20033;-81
2021/01/07 08:31:26;;;;;;;5.97;3.33;;;;;;;5.34;71.60;101483.53;5130665;27;20369;-80
2021/01/07 08:33:54;;;;;;;8.88;3.00;;;;;;;5.28;71.49;101492.22;5131585;27;20028;-80
2021/01/07 08:36:22;;;;;;;6.45;2.65;;;;;;;5.23;72.05;101487.75;5132002;28;20474;-80
2021/01/07 08:38:52;;;;;;;4.32;2.00;;;;;;;5.26;71.63;101490.41;5116844;28;20028;-80
2021/01/07 08:44:06;;;;;;;2.10;1.17;;;;;;;5.25;71.54;101492.16;5070737;27;20421;-79
2021/01/07 08:46:42;;;;;;;2.13;1.25;;;;;;;5.47;71.16;101490.69;5071082;28;20029;-79
2021/01/07 08:49:16;;;;;;;4.18;1.50;;;;;;;5.46;71.14;101488.91;5053101;28;20060;-80
2021/01/07 08:54:25;;;;;;;6.00;2.90;;;;;;;5.43;71.33;101482.75;5090453;28;20900;-79
2021/01/07 08:56:53;;;;;;;2.97;1.90;;;;;;;5.43;71.66;101485.38;5064984;28;20506;-79
2021/01/07 09:02:17;;;;;;;6.10;1.83;;;;;;;5.42;71.37;101486.22;5061510;27;20414;-79
2021/01/07 09:04:44;;;;;;;4.13;2.03;;;;;;;5.41;71.42;101489.72;5070475;28;20025;-80
2021/01/07 09:07:19;;;;;;;3.22;1.30;;;;;;;5.39;71.13;101491.47;5070555;28;20116;-81
2021/01/07 09:10:02;;;;;;;2.55;1.40;;;;;;;5.39;71.34;101492.34;5070140;28;20047;-81
2021/01/07 09:12:30;;;;;;;;;;;;;;;5.40;70.66;101499.38;5071011;28;20139;-80
2021/01/07 09:15:05;;;;;;;2.35;1.17;;;;;;;5.31;71.06;101499.25;5066793;28;19967;-80
2021/01/07 09:17:44;;;;;;;2.17;1.40;;;;;;;5.34;71.12;101499.28;5059487;28;20025;-81
2021/01/07 09:20:13;;;;;;;3.38;1.30;;;;;;;5.22;71.22;101501.75;5058812;28;20495;-87
2021/01/07 09:22:40;;;;;;;2.90;1.70;;;;;;;5.21;71.32;101502.63;5054250;28;20040;-80
2021/01/07 09:25:09;;;;;;;4.18;1.83;;;;;;;5.23;71.46;101501.78;5056505;28;20100;-82
2021/01/07 09:27:35;;;;;;;3.47;1.73;;;;;;;5.29;71.16;101503.59;5060411;28;20433;-81
2021/01/07 09:30:03;;;;;;;5.88;1.80;;;;;;;5.27;71.33;101508.84;5058548;28;20559;-78
2021/01/07 09:32:30;;;;;;;30.00;15.13;;;;;;;5.26;71.37;101507.09;5059988;28;20059;-78
2021/01/07 09:34:56;;;;;;;7.55;3.20;;;;;;;5.26;71.67;101512.34;5063079;28;20025;-78
2021/01/07 09:37:23;;;;;;;2.50;1.33;;;;;;;5.26;71.33;101516.69;5052429;28;20112;-86
2021/01/07 09:39:51;;;;;;;2.13;0.85;;;;;;;5.25;71.56;101512.31;5056997;28;20094;-78
2021/01/07 09:42:21;;;;;;;1.52;0.80;;;;;;;5.16;71.94;101507.84;5058329;28;20989;-79
2021/01/07 09:44:48;;;;;;;4.13;0.70;;;;;;;5.23;71.43;101514.03;5060564;28;20484;-85
2021/01/07 09:47:15;;;;;;;2.83;0.40;;;;;;;5.06;71.96;101513.81;5058362;28;20110;-82
2021/01/07 09:49:42;;;;;;;4.10;0.68;;;;;;;5.07;71.52;101511.22;5066373;28;20103;-79
2021/01/07 09:52:08;;;;;;;3.17;0.50;;;;;;;5.04;71.34;101513.78;5069734;28;20507;-83
2021/01/07 09:54:34;;;;;;;2.20;0.50;;;;;;;5.09;71.51;101509.47;5069075;28;20032;-78
2021/01/07 09:57:02;;;;;;;1.05;0.45;;;;;;;5.23;71.25;101508.78;5069801;28;20048;-80
2021/01/07 09:59:30;;;;;;;3.78;0.60;;;;;;;5.22;71.39;101504.38;5069035;28;20488;-81
2021/01/07 10:01:58;;;;;;;2.15;0.73;;;;;;;5.27;71.18;101514.09;5059104;28;20392;-81
2021/01/07 10:04:30;;;;;;;4.25;1.13;;;;;;;5.34;71.37;101508.03;5059546;28;20365;-83
2021/01/07 10:06:56;;;;;;;1.33;0.90;;;;;;;5.18;71.60;101504.38;5069096;28;20021;-82
2021/01/07 10:09:22;;;;;;;6.90;0.80;;;;;;;5.03;71.58;101506.75;5068902;28;20025;-78
2021/01/07 10:11:50;;;;;;;3.47;0.90;;;;;;;5.09;71.63;101503.34;5064154;28;20033;-79
2021/01/07 10:14:17;;;;;;;4.45;0.80;;;;;;;5.10;71.44;101506.00;5055264;28;20051;-78
2021/01/07 10:16:48;;;;;;;7.30;1.25;;;;;;;5.15;71.30;101504.31;5055701;28;20384;-77
2021/01/07 10:19:14;;;;;;;3.30;0.90;;;;;;;5.15;71.38;101501.69;5055720;28;20064;-81
2021/01/07 10:21:42;;;;;;;2.42;1.20;;;;;;;5.13;71.59;101497.28;5055753;28;20362;-80
2021/01/07 10:24:12;;;;;;;1.30;0.70;;;;;;;5.16;71.52;101495.56;5055521;28;20064;-80
2021/01/07 10:26:50;;;;;;;2.70;0.90;;;;;;;5.22;71.44;101494.78;5042441;28;20032;-86
2021/01/07 10:29:16;;;;;;;5.80;1.50;;;;;;;5.29;71.30;101496.59;5035989;28;20057;-84
2021/01/07 10:31:43;;;;;;;3.90;0.80;;;;;;;5.30;71.00;101500.13;5051723;28;20049;-80
2021/01/07 10:34:11;;;;;;;3.05;0.80;;;;;;;5.31;71.12;101499.25;5050052;28;20382;-82
2021/01/07 10:36:38;;;;;;;5.97;1.02;;;;;;;5.33;71.13;101481.75;5047405;28;20145;-83
2021/01/07 10:39:06;;;;;;;5.50;1.30;;;;;;;5.43;70.82;101481.03;5050517;28;20037;-82
2021/01/07 10:41:35;;;;;;;3.75;1.27;;;;;;;5.51;70.94;101476.72;5049175;28;20033;-78
2021/01/07 10:44:06;;;;;;;4.25;1.73;;;;;;;5.55;70.86;101471.50;5055854;28;20375;-79
2021/01/07 10:46:37;;;;;;;3.63;1.23;;;;;;;5.69;70.65;101471.63;5056043;28;20416;-78
2021/01/07 10:49:03;;;;;;;4.88;2.00;;;;;;;5.58;71.02;101464.53;5055178;28;20477;-81
2021/01/07 10:51:45;;;;;;;4.68;1.48;;;;;;;5.75;70.94;101459.44;5048633;28;20091;-78
2021/01/07 10:54:27;;;;;;;3.70;1.43;;;;;;;5.80;71.00;101459.47;5054170;28;20032;-78
2021/01/07 11:03:17;;;;;;;6.20;1.42;;;;;;;5.83;71.37;101457.75;5081621;28;20204;-79
2021/01/07 11:05:47;;;;;;;187.80;99.38;;;;;;;5.79;71.53;101455.09;5068204;28;20514;-81
2021/01/07 11:08:26;;;;;;;22.45;7.57;;;;;;;5.94;71.32;101452.63;5069156;28;20029;-79
2021/01/07 11:10:56;;;;;;;12.75;2.63;;;;;;;5.94;71.46;101438.56;5070531;28;20043;-81
2021/01/07 11:13:30;;;;;;;10.02;2.20;;;;;;;6.03;71.26;101438.69;5070277;28;20033;-80
2021/01/07 11:15:57;;;;;;;9.68;1.95;;;;;;;6.14;70.49;101441.38;5070483;28;20108;-80
2021/01/07 11:18:33;;;;;;;10.48;1.65;;;;;;;6.15;71.26;101449.28;5071354;23;20076;-88
2021/01/07 11:21:03;;;;;;;3.97;1.80;;;;;;;6.28;70.59;101449.38;5044535;28;20048;-87
2021/01/07 11:23:30;;;;;;;8.52;2.35;;;;;;;6.31;70.44;101445.03;5044860;28;20037;-88
2021/01/07 11:25:56;;;;;;;5.20;1.73;;;;;;;6.34;70.60;101444.16;5050114;28;20036;-89
2021/01/07 11:28:22;;;;;;;6.38;1.80;;;;;;;6.30;70.71;101442.38;5050140;28;20146;-89
2021/01/07 11:30:49;;;;;;;1.60;1.50;;;;;;;6.44;70.54;101438.13;5048509;28;20041;-90
2021/01/07 11:33:17;;;;;;;8.38;2.00;;;;;;;6.54;70.20;101433.78;5050290;28;20025;-91
2021/01/07 11:35:45;;;;;;;12.55;1.92;;;;;;;6.56;70.22;101434.66;5049642;28;20477;-90
2021/01/07 11:38:23;;;;;;;4.00;1.90;;;;;;;6.67;70.32;101440.00;5043669;28;20033;-90
2021/01/07 11:41:04;;;;;;;5.65;2.25;;;;;;;6.73;70.12;101434.78;5024184;28;20034;-90
2021/01/07 11:46:31;;;;;;;11.48;1.85;;;;;;;6.60;70.48;101430.31;5070060;28;20405;-88
2021/01/07 11:48:58;;;;;;;5.38;1.70;;;;;;;6.54;70.23;101425.00;5053602;28;20377;-88
2021/01/07 11:51:24;;;;;;;3.47;1.65;;;;;;;6.37;69.83;101430.13;5042376;28;20028;-88
2021/01/07 11:53:52;;;;;;;9.27;1.77;;;;;;;6.32;69.88;101414.34;5043180;28;20025;-89
2021/01/07 11:56:19;;;;;;;8.35;1.48;;;;;;;6.40;69.13;101422.28;5044456;28;20481;-87
2021/01/07 11:58:46;;;;;;;8.50;2.08;;;;;;;6.38;68.99;101418.75;5046934;28;20061;-87
2021/01/07 12:01:13;;;;;;;4.50;1.35;;;;;;;6.34;68.76;101423.09;5044264;28;20027;-88
2021/01/07 12:03:40;;;;;;;7.35;1.48;;;;;;;6.22;68.74;101417.75;5038652;28;20029;-89
2021/01/07 12:06:08;;;;;;;5.97;1.55;;;;;;;6.33;68.12;101410.84;5044591;28;20481;-87
2021/01/07 12:09:14;;;;;;;7.57;1.48;;;;;;;6.35;67.94;101406.44;5047254;28;20042;-89
2021/01/07 12:12:11;;;;;;;6.43;1.45;;;;;;;6.28;67.32;101404.63;5048869;28;20030;-90
2021/01/07 12:14:52;;;;;;;5.75;1.30;;;;;;;6.20;67.38;101401.09;5047726;28;20037;-90
2021/01/07 12:17:19;;;;;;;5.97;1.50;;;;;;;6.08;67.29;101394.88;5044265;28;20515;-89